sensor_id;sensor_type;location;lat;lon;timestamp;pressure;altitude;pressure_sealevel;temperature
71960;BMP280;59832;51.146;14.024;2023-04-26T00:01:24;98083.69;;;4.30
71960;BMP280;59832;51.146;14.024;2023-04-26T00:03:52;98092.00;;;4.30
71960;BMP280;59832;51.146;14.024;2023-04-26T00:06:19;98090.22;;;4.31
71960;BMP280;59832;51.146;14.024;2023-04-26T00:08:45;98099.97;;;4.32
71960;BMP280;59832;51.146;14.024;2023-04-26T00:11:12;98091.38;;;4.33
71960;BMP280;59832;51.146;14.024;2023-04-26T00:13:38;98094.50;;;4.39
71960;BMP280;59832;51.146;14.024;2023-04-26T00:16:05;98089.75;;;4.38
71960;BMP280;59832;51.146;14.024;2023-04-26T00:18:31;98098.03;;;4.38
71960;BMP280;59832;51.146;14.024;2023-04-26T00:20:58;98094.22;;;4.32
71960;BMP280;59832;51.146;14.024;2023-04-26T00:23:24;98099.09;;;4.28
71960;BMP280;59832;51.146;14.024;2023-04-26T00:25:51;98101.91;;;4.36
71960;BMP280;59832;51.146;14.024;2023-04-26T00:28:17;98093.16;;;4.33
71960;BMP280;59832;51.146;14.024;2023-04-26T00:30:44;98096.56;;;4.28
71960;BMP280;59832;51.146;14.024;2023-04-26T00:33:13;98101.16;;;4.26
71960;BMP280;59832;51.146;14.024;2023-04-26T00:35:40;98109.75;;;4.25
71960;BMP280;59832;51.146;14.024;2023-04-26T00:38:06;98110.94;;;4.28
71960;BMP280;59832;51.146;14.024;2023-04-26T00:40:33;98107.84;;;4.22
71960;BMP280;59832;51.146;14.024;2023-04-26T00:43:01;98108.69;;;4.18
71960;BMP280;59832;51.146;14.024;2023-04-26T00:45:28;98116.25;;;4.18
71960;BMP280;59832;51.146;14.024;2023-04-26T00:47:54;98111.69;;;4.11
71960;BMP280;59832;51.146;14.024;2023-04-26T00:50:21;98115.69;;;4.04
71960;BMP280;59832;51.146;14.024;2023-04-26T00:52:48;98112.69;;;4.02
71960;BMP280;59832;51.146;14.024;2023-04-26T00:55:15;98114.19;;;4.03
71960;BMP280;59832;51.146;14.024;2023-04-26T00:57:44;98114.47;;;4.01
71960;BMP280;59832;51.146;14.024;2023-04-26T01:00:11;98123.06;;;4.00
71960;BMP280;59832;51.146;14.024;2023-04-26T01:02:37;98115.97;;;3.93
71960;BMP280;59832;51.146;14.024;2023-04-26T01:05:04;98120.53;;;3.91
71960;BMP280;59832;51.146;14.024;2023-04-26T01:07:32;98128.94;;;3.78
71960;BMP280;59832;51.146;14.024;2023-04-26T01:09:58;98128.94;;;3.78
71960;BMP280;59832;51.146;14.024;2023-04-26T01:12:25;98124.66;;;3.70
71960;BMP280;59832;51.146;14.024;2023-04-26T01:14:52;98129.81;;;3.65
71960;BMP280;59832;51.146;14.024;2023-04-26T01:17:18;98129.06;;;3.65
71960;BMP280;59832;51.146;14.024;2023-04-26T01:19:46;98123.75;;;3.66
71960;BMP280;59832;51.146;14.024;2023-04-26T01:22:13;98127.72;;;3.59
71960;BMP280;59832;51.146;14.024;2023-04-26T01:24:41;98130.34;;;3.53
71960;BMP280;59832;51.146;14.024;2023-04-26T01:27:08;98126.91;;;3.49
71960;BMP280;59832;51.146;14.024;2023-04-26T01:29:35;98126.63;;;3.51
71960;BMP280;59832;51.146;14.024;2023-04-26T01:32:01;98129.13;;;3.42
71960;BMP280;59832;51.146;14.024;2023-04-26T01:34:28;98131.03;;;3.37
71960;BMP280;59832;51.146;14.024;2023-04-26T01:36:54;98137.66;;;3.33
71960;BMP280;59832;51.146;14.024;2023-04-26T01:39:21;98134.41;;;3.32
71960;BMP280;59832;51.146;14.024;2023-04-26T01:41:47;98136.63;;;3.34
71960;BMP280;59832;51.146;14.024;2023-04-26T01:44:14;98137.06;;;3.27
71960;BMP280;59832;51.146;14.024;2023-04-26T01:46:40;98144.13;;;3.25
71960;BMP280;59832;51.146;14.024;2023-04-26T01:49:07;98144.13;;;3.25
71960;BMP280;59832;51.146;14.024;2023-04-26T01:51:33;98140.41;;;3.23
71960;BMP280;59832;51.146;14.024;2023-04-26T01:54:00;98147.25;;;3.22
71960;BMP280;59832;51.146;14.024;2023-04-26T01:56:27;98142.06;;;3.19
71960;BMP280;59832;51.146;14.024;2023-04-26T01:58:53;98149.88;;;3.17
71960;BMP280;59832;51.146;14.024;2023-04-26T02:01:24;98155.94;;;3.16
71960;BMP280;59832;51.146;14.024;2023-04-26T02:03:51;98151.47;;;3.13
71960;BMP280;59832;51.146;14.024;2023-04-26T02:06:17;98147.66;;;3.16
71960;BMP280;59832;51.146;14.024;2023-04-26T02:08:44;98164.22;;;3.17
71960;BMP280;59832;51.146;14.024;2023-04-26T02:11:10;98154.25;;;3.11
71960;BMP280;59832;51.146;14.024;2023-04-26T02:13:37;98155.59;;;3.09
71960;BMP280;59832;51.146;14.024;2023-04-26T02:16:03;98149.81;;;3.08
71960;BMP280;59832;51.146;14.024;2023-04-26T02:18:30;98148.22;;;3.12
71960;BMP280;59832;51.146;14.024;2023-04-26T02:20:57;98150.44;;;3.14
71960;BMP280;59832;51.146;14.024;2023-04-26T02:23:23;98148.06;;;3.09
71960;BMP280;59832;51.146;14.024;2023-04-26T02:25:49;98150.44;;;3.14
71960;BMP280;59832;51.146;14.024;2023-04-26T02:28:16;98153.72;;;3.15
71960;BMP280;59832;51.146;14.024;2023-04-26T02:30:43;98154.84;;;3.08
71960;BMP280;59832;51.146;14.024;2023-04-26T02:33:10;98156.78;;;3.11
71960;BMP280;59832;51.146;14.024;2023-04-26T02:35:36;98155.31;;;3.10
71960;BMP280;59832;51.146;14.024;2023-04-26T02:38:02;98144.66;;;3.13
71960;BMP280;59832;51.146;14.024;2023-04-26T02:40:29;98150.28;;;3.10
71960;BMP280;59832;51.146;14.024;2023-04-26T02:42:55;98143.50;;;3.11
71960;BMP280;59832;51.146;14.024;2023-04-26T02:45:22;98150.63;;;3.18
71960;BMP280;59832;51.146;14.024;2023-04-26T02:47:49;98143.53;;;3.20
71960;BMP280;59832;51.146;14.024;2023-04-26T02:50:15;98142.63;;;3.16
71960;BMP280;59832;51.146;14.024;2023-04-26T02:52:42;98145.41;;;3.14
71960;BMP280;59832;51.146;14.024;2023-04-26T02:55:08;98149.81;;;3.08
71960;BMP280;59832;51.146;14.024;2023-04-26T02:57:35;98148.06;;;3.09
71960;BMP280;59832;51.146;14.024;2023-04-26T03:00:01;98149.81;;;3.08
71960;BMP280;59832;51.146;14.024;2023-04-26T03:02:30;98143.78;;;3.09
71960;BMP280;59832;51.146;14.024;2023-04-26T03:04:57;98151.69;;;3.03
71960;BMP280;59832;51.146;14.024;2023-04-26T03:07:24;98153.03;;;3.00
71960;BMP280;59832;51.146;14.024;2023-04-26T03:09:51;98145.56;;;2.95
71960;BMP280;59832;51.146;14.024;2023-04-26T03:12:18;98154.13;;;2.94
71960;BMP280;59832;51.146;14.024;2023-04-26T03:14:44;98152.84;;;2.97
71960;BMP280;59832;51.146;14.024;2023-04-26T03:17:11;98151.44;;;2.82
71960;BMP280;59832;51.146;14.024;2023-04-26T03:19:37;98151.44;;;2.82
71960;BMP280;59832;51.146;14.024;2023-04-26T03:22:03;98155.84;;;2.77
71960;BMP280;59832;51.146;14.024;2023-04-26T03:24:30;98158.91;;;2.73
71960;BMP280;59832;51.146;14.024;2023-04-26T03:26:57;98160.19;;;2.71
71960;BMP280;59832;51.146;14.024;2023-04-26T03:29:25;98168.69;;;2.75
71960;BMP280;59832;51.146;14.024;2023-04-26T03:31:52;98162.25;;;2.69
71960;BMP280;59832;51.146;14.024;2023-04-26T03:34:18;98169.69;;;2.74
71960;BMP280;59832;51.146;14.024;2023-04-26T03:36:44;98163.75;;;2.70
71960;BMP280;59832;51.146;14.024;2023-04-26T03:39:11;98160.47;;;2.69
71960;BMP280;59832;51.146;14.024;2023-04-26T03:41:37;98164.03;;;2.68
71960;BMP280;59832;51.146;14.024;2023-04-26T03:44:05;98172.41;;;2.64
71960;BMP280;59832;51.146;14.024;2023-04-26T03:46:32;98163.97;;;2.60
71960;BMP280;59832;51.146;14.024;2023-04-26T03:48:59;98172.84;;;2.57
71960;BMP280;59832;51.146;14.024;2023-04-26T03:51:25;98170.78;;;2.59
71960;BMP280;59832;51.146;14.024;2023-04-26T03:53:53;98173.94;;;2.51
71960;BMP280;59832;51.146;14.024;2023-04-26T03:56:20;98184.00;;;2.51
71960;BMP280;59832;51.146;14.024;2023-04-26T03:58:46;98177.94;;;2.52
71960;BMP280;59832;51.146;14.024;2023-04-26T04:01:13;98186.50;;;2.51
71960;BMP280;59832;51.146;14.024;2023-04-26T04:03:39;98189.31;;;2.50
71960;BMP280;59832;51.146;14.024;2023-04-26T04:06:07;98191.34;;;2.48
71960;BMP280;59832;51.146;14.024;2023-04-26T04:08:33;98189.00;;;2.51
71960;BMP280;59832;51.146;14.024;2023-04-26T04:11:00;98190.78;;;2.51
71960;BMP280;59832;51.146;14.024;2023-04-26T04:13:26;98190.34;;;2.49
71960;BMP280;59832;51.146;14.024;2023-04-26T04:15:53;98187.63;;;2.45
71960;BMP280;59832;51.146;14.024;2023-04-26T04:18:19;98195.63;;;2.47
71960;BMP280;59832;51.146;14.024;2023-04-26T04:20:46;98187.34;;;2.47
71960;BMP280;59832;51.146;14.024;2023-04-26T04:23:12;98191.09;;;2.49
71960;BMP280;59832;51.146;14.024;2023-04-26T04:25:38;98200.47;;;2.57
71960;BMP280;59832;51.146;14.024;2023-04-26T04:28:05;98205.03;;;2.55
71960;BMP280;59832;51.146;14.024;2023-04-26T04:30:31;98206.53;;;2.56
71960;BMP280;59832;51.146;14.024;2023-04-26T04:32:58;98203.16;;;2.61
71960;BMP280;59832;51.146;14.024;2023-04-26T04:35:25;98203.31;;;2.64
71960;BMP280;59832;51.146;14.024;2023-04-26T04:37:54;98205.78;;;2.78
71960;BMP280;59832;51.146;14.024;2023-04-26T04:40:24;98205.91;;;2.73
71960;BMP280;59832;51.146;14.024;2023-04-26T04:42:51;98199.34;;;2.86
71960;BMP280;59832;51.146;14.024;2023-04-26T04:45:19;98210.63;;;2.88
71960;BMP280;59832;51.146;14.024;2023-04-26T04:47:45;98208.91;;;2.97
71960;BMP280;59832;51.146;14.024;2023-04-26T04:50:12;98208.28;;;3.14
71960;BMP280;59832;51.146;14.024;2023-04-26T04:52:39;98211.72;;;3.18
71960;BMP280;59832;51.146;14.024;2023-04-26T04:55:06;98216.06;;;3.26
71960;BMP280;59832;51.146;14.024;2023-04-26T04:57:33;98220.47;;;3.43
71960;BMP280;59832;51.146;14.024;2023-04-26T04:59:59;98223.16;;;3.55
71960;BMP280;59832;51.146;14.024;2023-04-26T05:02:35;98221.75;;;3.40
71960;BMP280;59832;51.146;14.024;2023-04-26T05:05:03;98226.88;;;3.58
71960;BMP280;59832;51.146;14.024;2023-04-26T05:07:30;98236.47;;;3.56
71960;BMP280;59832;51.146;14.024;2023-04-26T05:09:57;98234.19;;;3.68
71960;BMP280;59832;51.146;14.024;2023-04-26T05:12:24;98227.00;;;3.83
71960;BMP280;59832;51.146;14.024;2023-04-26T05:14:51;98226.19;;;4.05
71960;BMP280;59832;51.146;14.024;2023-04-26T05:17:17;98226.97;;;4.23
71960;BMP280;59832;51.146;14.024;2023-04-26T05:19:43;98229.50;;;4.23
71960;BMP280;59832;51.146;14.024;2023-04-26T05:22:11;98229.97;;;4.59
71960;BMP280;59832;51.146;14.024;2023-04-26T05:24:45;98236.38;;;5.00
71960;BMP280;59832;51.146;14.024;2023-04-26T05:27:12;98235.78;;;4.86
71960;BMP280;59832;51.146;14.024;2023-04-26T05:29:38;98244.38;;;5.02
71960;BMP280;59832;51.146;14.024;2023-04-26T05:32:05;98245.13;;;4.85
71960;BMP280;59832;51.146;14.024;2023-04-26T05:34:32;98239.34;;;4.67
71960;BMP280;59832;51.146;14.024;2023-04-26T05:36:58;98240.50;;;5.13
71960;BMP280;59832;51.146;14.024;2023-04-26T05:39:24;98241.13;;;5.19
71960;BMP280;59832;51.146;14.024;2023-04-26T05:41:51;98244.94;;;5.33
71960;BMP280;59832;51.146;14.024;2023-04-26T05:44:17;98250.06;;;5.54
71960;BMP280;59832;51.146;14.024;2023-04-26T05:46:45;98258.22;;;5.59
71960;BMP280;59832;51.146;14.024;2023-04-26T05:49:11;98258.22;;;5.59
71960;BMP280;59832;51.146;14.024;2023-04-26T05:51:38;98259.25;;;5.96
71960;BMP280;59832;51.146;14.024;2023-04-26T05:54:04;98254.75;;;6.02
71960;BMP280;59832;51.146;14.024;2023-04-26T05:56:31;98258.03;;;6.03
71960;BMP280;59832;51.146;14.024;2023-04-26T05:58:57;98263.69;;;5.70
71960;BMP280;59832;51.146;14.024;2023-04-26T06:01:23;98262.91;;;5.87
71960;BMP280;59832;51.146;14.024;2023-04-26T06:03:50;98252.28;;;6.23
71960;BMP280;59832;51.146;14.024;2023-04-26T06:06:17;98261.88;;;6.38
71960;BMP280;59832;51.146;14.024;2023-04-26T06:08:45;98254.19;;;6.26
71960;BMP280;59832;51.146;14.024;2023-04-26T06:11:11;98256.91;;;5.45
71960;BMP280;59832;51.146;14.024;2023-04-26T06:13:37;98264.31;;;5.58
71960;BMP280;59832;51.146;14.024;2023-04-26T06:16:04;98267.31;;;5.90
71960;BMP280;59832;51.146;14.024;2023-04-26T06:18:30;98258.25;;;5.42
71960;BMP280;59832;51.146;14.024;2023-04-26T06:20:57;98264.19;;;5.46
71960;BMP280;59832;51.146;14.024;2023-04-26T06:23:23;98272.00;;;5.62
71960;BMP280;59832;51.146;14.024;2023-04-26T06:25:50;98262.25;;;5.90
71960;BMP280;59832;51.146;14.024;2023-04-26T06:28:16;98267.16;;;6.16
71960;BMP280;59832;51.146;14.024;2023-04-26T06:30:42;98261.88;;;6.38
71960;BMP280;59832;51.146;14.024;2023-04-26T06:33:09;98268.44;;;6.30
71960;BMP280;59832;51.146;14.024;2023-04-26T06:35:42;98273.44;;;5.80
71960;BMP280;59832;51.146;14.024;2023-04-26T06:38:08;98274.72;;;5.48
71960;BMP280;59832;51.146;14.024;2023-04-26T06:40:34;98270.59;;;5.44
71960;BMP280;59832;51.146;14.024;2023-04-26T06:43:03;98275.19;;;5.50
71960;BMP280;59832;51.146;14.024;2023-04-26T06:45:30;98271.19;;;5.41
71960;BMP280;59832;51.146;14.024;2023-04-26T06:47:57;98264.69;;;5.14
71960;BMP280;59832;51.146;14.024;2023-04-26T06:50:26;98274.19;;;5.81
71960;BMP280;59832;51.146;14.024;2023-04-26T06:52:53;98269.06;;;6.69
71960;BMP280;59832;51.146;14.024;2023-04-26T06:55:19;98278.38;;;6.98
71960;BMP280;59832;51.146;14.024;2023-04-26T06:57:46;98280.03;;;6.02
71960;BMP280;59832;51.146;14.024;2023-04-26T07:00:13;98274.56;;;6.00
71960;BMP280;59832;51.146;14.024;2023-04-26T07:02:39;98274.81;;;6.36
71960;BMP280;59832;51.146;14.024;2023-04-26T07:05:06;98273.25;;;6.44
71960;BMP280;59832;51.146;14.024;2023-04-26T07:07:34;98285.44;;;5.92
71960;BMP280;59832;51.146;14.024;2023-04-26T07:10:02;98274.59;;;5.91
71960;BMP280;59832;51.146;14.024;2023-04-26T07:12:28;98280.38;;;5.92
71960;BMP280;59832;51.146;14.024;2023-04-26T07:14:55;98284.50;;;5.67
71960;BMP280;59832;51.146;14.024;2023-04-26T07:17:21;98281.22;;;5.67
71960;BMP280;59832;51.146;14.024;2023-04-26T07:19:47;98277.31;;;6.07
71960;BMP280;59832;51.146;14.024;2023-04-26T07:22:14;98284.91;;;6.07
71960;BMP280;59832;51.146;14.024;2023-04-26T07:24:40;98286.56;;;6.12
71960;BMP280;59832;51.146;14.024;2023-04-26T07:27:07;98291.63;;;6.32
71960;BMP280;59832;51.146;14.024;2023-04-26T07:29:33;98283.88;;;6.37
71960;BMP280;59832;51.146;14.024;2023-04-26T07:31:59;98284.78;;;6.74
71960;BMP280;59832;51.146;14.024;2023-04-26T07:34:26;98283.19;;;6.49
71960;BMP280;59832;51.146;14.024;2023-04-26T07:36:52;98291.47;;;7.12
71960;BMP280;59832;51.146;14.024;2023-04-26T07:39:18;98279.88;;;7.68
71960;BMP280;59832;51.146;14.024;2023-04-26T07:41:45;98276.28;;;7.00
71960;BMP280;59832;51.146;14.024;2023-04-26T07:44:11;98280.00;;;7.14
71960;BMP280;59832;51.146;14.024;2023-04-26T07:46:38;98277.53;;;6.73
71960;BMP280;59832;51.146;14.024;2023-04-26T07:49:04;98278.03;;;7.32
71960;BMP280;59832;51.146;14.024;2023-04-26T07:51:31;98281.22;;;7.65
71960;BMP280;59832;51.146;14.024;2023-04-26T07:53:57;98289.38;;;7.83
71960;BMP280;59832;51.146;14.024;2023-04-26T07:56:24;98271.22;;;7.81
71960;BMP280;59832;51.146;14.024;2023-04-26T07:58:50;98278.19;;;7.72
71960;BMP280;59832;51.146;14.024;2023-04-26T08:01:17;98276.16;;;7.65
71960;BMP280;59832;51.146;14.024;2023-04-26T08:03:43;98279.75;;;8.01
71960;BMP280;59832;51.146;14.024;2023-04-26T08:06:10;98278.38;;;7.55
71960;BMP280;59832;51.146;14.024;2023-04-26T08:08:37;98281.19;;;8.66
71960;BMP280;59832;51.146;14.024;2023-04-26T08:11:10;98272.97;;;8.57
71960;BMP280;59832;51.146;14.024;2023-04-26T08:13:37;98276.53;;;7.76
71960;BMP280;59832;51.146;14.024;2023-04-26T08:16:04;98275.53;;;7.56
71960;BMP280;59832;51.146;14.024;2023-04-26T08:18:30;98276.38;;;7.03
71960;BMP280;59832;51.146;14.024;2023-04-26T08:20:57;98287.66;;;7.39
71960;BMP280;59832;51.146;14.024;2023-04-26T08:23:24;98277.34;;;7.92
71960;BMP280;59832;51.146;14.024;2023-04-26T08:25:50;98280.63;;;8.45
71960;BMP280;59832;51.146;14.024;2023-04-26T08:28:16;98279.25;;;8.47
71960;BMP280;59832;51.146;14.024;2023-04-26T08:30:43;98275.66;;;8.08
71960;BMP280;59832;51.146;14.024;2023-04-26T08:33:09;98282.09;;;7.57
71960;BMP280;59832;51.146;14.024;2023-04-26T08:35:36;98293.25;;;6.99
71960;BMP280;59832;51.146;14.024;2023-04-26T08:38:02;98280.44;;;6.63
71960;BMP280;59832;51.146;14.024;2023-04-26T08:40:29;98293.78;;;6.84
71960;BMP280;59832;51.146;14.024;2023-04-26T08:42:56;98287.69;;;7.99
71960;BMP280;59832;51.146;14.024;2023-04-26T08:45:23;98290.38;;;8.71
71960;BMP280;59832;51.146;14.024;2023-04-26T08:47:52;98279.28;;;9.50
71960;BMP280;59832;51.146;14.024;2023-04-26T08:50:20;98283.28;;;10.02
71960;BMP280;59832;51.146;14.024;2023-04-26T08:52:49;98279.97;;;9.66
71960;BMP280;59832;51.146;14.024;2023-04-26T08:55:18;98285.38;;;9.02
71960;BMP280;59832;51.146;14.024;2023-04-26T08:57:47;98275.66;;;8.08
71960;BMP280;59832;51.146;14.024;2023-04-26T09:00:15;98307.50;;;7.04
71960;BMP280;59832;51.146;14.024;2023-04-26T09:02:47;98294.13;;;6.32
71960;BMP280;59832;51.146;14.024;2023-04-26T09:05:14;98304.94;;;6.21
71960;BMP280;59832;51.146;14.024;2023-04-26T09:07:45;98298.81;;;6.51
71960;BMP280;59832;51.146;14.024;2023-04-26T09:10:13;98298.03;;;6.80
71960;BMP280;59832;51.146;14.024;2023-04-26T09:12:43;98298.56;;;7.51
71960;BMP280;59832;51.146;14.024;2023-04-26T09:15:09;98292.31;;;8.09
71960;BMP280;59832;51.146;14.024;2023-04-26T09:17:37;98291.28;;;9.06
71960;BMP280;59832;51.146;14.024;2023-04-26T09:22:52;98285.09;;;10.20
71960;BMP280;59832;51.146;14.024;2023-04-26T09:25:27;98293.47;;;10.78
71960;BMP280;59832;51.146;14.024;2023-04-26T09:27:54;98289.44;;;10.20
71960;BMP280;59832;51.146;14.024;2023-04-26T09:30:21;98274.50;;;9.99
71960;BMP280;59832;51.146;14.024;2023-04-26T09:32:57;98276.25;;;8.57
71960;BMP280;59832;51.146;14.024;2023-04-26T09:35:35;98289.78;;;8.09
71960;BMP280;59832;51.146;14.024;2023-04-26T09:40:40;98288.03;;;8.50
71960;BMP280;59832;51.146;14.024;2023-04-26T09:43:12;98286.63;;;9.24
71960;BMP280;59832;51.146;14.024;2023-04-26T09:50:53;98268.50;;;10.07
71960;BMP280;59832;51.146;14.024;2023-04-26T09:53:40;98272.75;;;9.68
71960;BMP280;59832;51.146;14.024;2023-04-26T09:56:12;98273.50;;;9.69
71960;BMP280;59832;51.146;14.024;2023-04-26T09:58:55;98265.53;;;8.64
71960;BMP280;59832;51.146;14.024;2023-04-26T10:01:24;98278.41;;;8.43
71960;BMP280;59832;51.146;14.024;2023-04-26T10:03:51;98281.41;;;8.33
71960;BMP280;59832;51.146;14.024;2023-04-26T10:06:18;98278.41;;;8.43
71960;BMP280;59832;51.146;14.024;2023-04-26T10:08:44;98271.38;;;8.25
71960;BMP280;59832;51.146;14.024;2023-04-26T10:11:11;98282.31;;;8.41
71960;BMP280;59832;51.146;14.024;2023-04-26T10:13:39;98289.72;;;8.74
71960;BMP280;59832;51.146;14.024;2023-04-26T10:16:07;98284.34;;;9.50
71960;BMP280;59832;51.146;14.024;2023-04-26T10:18:35;98281.28;;;9.60
71960;BMP280;59832;51.146;14.024;2023-04-26T10:21:14;98278.63;;;10.23
71960;BMP280;59832;51.146;14.024;2023-04-26T10:23:42;98269.47;;;9.83
71960;BMP280;59832;51.146;14.024;2023-04-26T10:29:23;98282.66;;;9.11
71960;BMP280;59832;51.146;14.024;2023-04-26T10:34:29;98280.09;;;9.23
71960;BMP280;59832;51.146;14.024;2023-04-26T10:37:12;98276.81;;;9.07
71960;BMP280;59832;51.146;14.024;2023-04-26T10:39:40;98283.84;;;8.30
71960;BMP280;59832;51.146;14.024;2023-04-26T10:42:27;98286.25;;;7.86
71960;BMP280;59832;51.146;14.024;2023-04-26T10:44:56;98284.75;;;7.73
71960;BMP280;59832;51.146;14.024;2023-04-26T10:47:32;98287.91;;;7.94
71960;BMP280;59832;51.146;14.024;2023-04-26T10:50:01;98284.06;;;8.37
71960;BMP280;59832;51.146;14.024;2023-04-26T10:52:31;98278.03;;;9.13
71960;BMP280;59832;51.146;14.024;2023-04-26T10:54:58;98268.38;;;9.49
71960;BMP280;59832;51.146;14.024;2023-04-26T10:57:48;98268.34;;;9.34
71960;BMP280;59832;51.146;14.024;2023-04-26T11:00:19;98272.47;;;9.54
71960;BMP280;59832;51.146;14.024;2023-04-26T11:02:57;98272.44;;;10.43
71960;BMP280;59832;51.146;14.024;2023-04-26T11:05:46;98267.16;;;10.52
71960;BMP280;59832;51.146;14.024;2023-04-26T11:10:39;98271.84;;;9.76
71960;BMP280;59832;51.146;14.024;2023-04-26T11:13:06;98263.38;;;9.22
71960;BMP280;59832;51.146;14.024;2023-04-26T11:15:34;98266.13;;;8.73
71960;BMP280;59832;51.146;14.024;2023-04-26T11:18:03;98265.19;;;8.10
71960;BMP280;59832;51.146;14.024;2023-04-26T11:20:31;98266.16;;;7.93
71960;BMP280;59832;51.146;14.024;2023-04-26T11:22:58;98270.91;;;7.83
71960;BMP280;59832;51.146;14.024;2023-04-26T11:25:26;98267.50;;;7.91
71960;BMP280;59832;51.146;14.024;2023-04-26T11:27:59;98268.25;;;7.91
71960;BMP280;59832;51.146;14.024;2023-04-26T11:30:28;98274.47;;;8.06
71960;BMP280;59832;51.146;14.024;2023-04-26T11:32:55;98271.19;;;8.05
71960;BMP280;59832;51.146;14.024;2023-04-26T11:35:22;98277.53;;;7.99
71960;BMP280;59832;51.146;14.024;2023-04-26T11:37:50;98274.91;;;7.96
71960;BMP280;59832;51.146;14.024;2023-04-26T11:40:17;98281.66;;;7.67
71960;BMP280;59832;51.146;14.024;2023-04-26T11:42:44;98283.22;;;7.48
71960;BMP280;59832;51.146;14.024;2023-04-26T11:45:13;98295.13;;;7.35
71960;BMP280;59832;51.146;14.024;2023-04-26T11:47:40;98289.94;;;7.32
71960;BMP280;59832;51.146;14.024;2023-04-26T11:50:07;98289.97;;;7.44
71960;BMP280;59832;51.146;14.024;2023-04-26T11:52:36;98285.13;;;7.87
71960;BMP280;59832;51.146;14.024;2023-04-26T11:55:04;98289.38;;;8.07
71960;BMP280;59832;51.146;14.024;2023-04-26T11:57:33;98296.34;;;8.50
71960;BMP280;59832;51.146;14.024;2023-04-26T12:00:13;98295.00;;;8.81
71960;BMP280;59832;51.146;14.024;2023-04-26T12:02:46;98294.75;;;9.29
71960;BMP280;59832;51.146;14.024;2023-04-26T12:05:29;98297.38;;;9.33
71960;BMP280;59832;51.146;14.024;2023-04-26T12:07:59;98289.56;;;10.08
71960;BMP280;59832;51.146;14.024;2023-04-26T12:10:34;98291.22;;;9.65
71960;BMP280;59832;51.146;14.024;2023-04-26T12:13:02;98292.63;;;9.63
71960;BMP280;59832;51.146;14.024;2023-04-26T12:15:32;98294.31;;;9.74
71960;BMP280;59832;51.146;14.024;2023-04-26T12:18:06;98291.63;;;9.51
71960;BMP280;59832;51.146;14.024;2023-04-26T12:20:35;98290.31;;;9.42
71960;BMP280;59832;51.146;14.024;2023-04-26T12:23:04;98290.47;;;9.18
71960;BMP280;59832;51.146;14.024;2023-04-26T12:25:33;98292.09;;;9.10
71960;BMP280;59832;51.146;14.024;2023-04-26T12:28:00;98293.13;;;8.93
71960;BMP280;59832;51.146;14.024;2023-04-26T12:30:28;98301.84;;;9.08
71960;BMP280;59832;51.146;14.024;2023-04-26T12:32:54;98306.84;;;9.20
71960;BMP280;59832;51.146;14.024;2023-04-26T12:35:40;98300.75;;;9.09
71960;BMP280;59832;51.146;14.024;2023-04-26T12:38:07;98289.09;;;9.51
71960;BMP280;59832;51.146;14.024;2023-04-26T12:40:33;98302.47;;;9.99
71960;BMP280;59832;51.146;14.024;2023-04-26T12:42:59;98299.34;;;10.25
71960;BMP280;59832;51.146;14.024;2023-04-26T12:45:26;98293.97;;;9.91
71960;BMP280;59832;51.146;14.024;2023-04-26T12:47:53;98298.53;;;10.21
71960;BMP280;59832;51.146;14.024;2023-04-26T12:50:20;98291.59;;;10.37
71960;BMP280;59832;51.146;14.024;2023-04-26T12:52:47;98286.47;;;10.75
71960;BMP280;59832;51.146;14.024;2023-04-26T12:55:14;98282.34;;;10.90
71960;BMP280;59832;51.146;14.024;2023-04-26T12:57:43;98288.50;;;10.66
71960;BMP280;59832;51.146;14.024;2023-04-26T13:00:13;98276.66;;;10.55
71960;BMP280;59832;51.146;14.024;2023-04-26T13:02:40;98288.31;;;10.17
71960;BMP280;59832;51.146;14.024;2023-04-26T13:05:07;98287.84;;;10.31
71960;BMP280;59832;51.146;14.024;2023-04-26T13:07:36;98280.75;;;10.21
71960;BMP280;59832;51.146;14.024;2023-04-26T13:10:04;98281.91;;;9.88
71960;BMP280;59832;51.146;14.024;2023-04-26T13:12:30;98283.91;;;9.79
71960;BMP280;59832;51.146;14.024;2023-04-26T13:14:57;98291.78;;;9.74
71960;BMP280;59832;51.146;14.024;2023-04-26T13:17:24;98294.38;;;9.78
71960;BMP280;59832;51.146;14.024;2023-04-26T13:19:52;98288.25;;;9.47
71960;BMP280;59832;51.146;14.024;2023-04-26T13:22:19;98292.50;;;9.12
71960;BMP280;59832;51.146;14.024;2023-04-26T13:24:45;98294.16;;;9.20
71960;BMP280;59832;51.146;14.024;2023-04-26T13:27:12;98295.16;;;9.16
71960;BMP280;59832;51.146;14.024;2023-04-26T13:29:39;98294.41;;;8.72
71960;BMP280;59832;51.146;14.024;2023-04-26T13:32:06;98294.59;;;8.79
71960;BMP280;59832;51.146;14.024;2023-04-26T13:34:34;98307.34;;;8.54
71960;BMP280;59832;51.146;14.024;2023-04-26T13:37:00;98297.25;;;8.70
71960;BMP280;59832;51.146;14.024;2023-04-26T13:39:29;98299.56;;;8.75
71960;BMP280;59832;51.146;14.024;2023-04-26T13:41:58;98293.44;;;8.92
71960;BMP280;59832;51.146;14.024;2023-04-26T13:44:25;98298.72;;;8.99
71960;BMP280;59832;51.146;14.024;2023-04-26T13:46:53;98296.66;;;8.89
71960;BMP280;59832;51.146;14.024;2023-04-26T13:49:19;98302.53;;;8.77
71960;BMP280;59832;51.146;14.024;2023-04-26T13:51:48;98298.72;;;8.71
71960;BMP280;59832;51.146;14.024;2023-04-26T13:54:14;98315.00;;;8.70
71960;BMP280;59832;51.146;14.024;2023-04-26T13:56:41;98307.13;;;8.59
71960;BMP280;59832;51.146;14.024;2023-04-26T13:59:07;98302.06;;;8.87
71960;BMP280;59832;51.146;14.024;2023-04-26T14:01:33;98311.41;;;8.99
71960;BMP280;59832;51.146;14.024;2023-04-26T14:04:01;98303.41;;;8.97
71960;BMP280;59832;51.146;14.024;2023-04-26T14:06:29;98304.19;;;9.01
71960;BMP280;59832;51.146;14.024;2023-04-26T14:08:57;98316.25;;;9.04
71960;BMP280;59832;51.146;14.024;2023-04-26T14:11:24;98315.34;;;8.96
71960;BMP280;59832;51.146;14.024;2023-04-26T14:13:50;98318.47;;;9.05
71960;BMP280;59832;51.146;14.024;2023-04-26T14:16:22;98313.72;;;9.20
71960;BMP280;59832;51.146;14.024;2023-04-26T14:18:49;98313.69;;;9.32
71960;BMP280;59832;51.146;14.024;2023-04-26T14:21:17;98308.00;;;9.07
71960;BMP280;59832;51.146;14.024;2023-04-26T14:23:43;98308.78;;;8.95
71960;BMP280;59832;51.146;14.024;2023-04-26T14:26:10;98308.66;;;8.76
71960;BMP280;59832;51.146;14.024;2023-04-26T14:28:37;98315.38;;;8.84
71960;BMP280;59832;51.146;14.024;2023-04-26T14:31:03;98316.94;;;8.61